createdAt,value
2023-08-29T00:00:57.219Z,0.4
2023-08-29T00:02:05.976Z,0.3
2023-08-29T00:03:15.661Z,0.3
2023-08-29T00:04:24.332Z,0.3
2023-08-29T00:05:32.012Z,0.3
2023-08-29T00:06:41.676Z,0.3
2023-08-29T00:07:50.383Z,0.3
2023-08-29T00:08:59.036Z,0.3
2023-08-29T00:10:07.761Z,0.6
2023-08-29T00:11:16.436Z,0.3
2023-08-29T00:12:26.160Z,0.3
2023-08-29T00:13:34.846Z,0.4
2023-08-29T00:14:42.530Z,0.3
2023-08-29T00:15:52.284Z,0.3
2023-08-29T00:17:01.987Z,0.3
2023-08-29T00:18:10.697Z,0.2
2023-08-29T00:19:20.351Z,0.3
2023-08-29T00:20:30.016Z,0.2
2023-08-29T00:21:38.748Z,0.3
2023-08-29T00:22:46.424Z,0.6
2023-08-29T00:23:56.107Z,0.2
2023-08-29T00:25:05.790Z,0.3
2023-08-29T00:26:15.473Z,0.2
2023-08-29T00:27:25.163Z,0.3
2023-08-29T00:28:33.864Z,0.3
2023-08-29T00:29:43.578Z,0.7
2023-08-29T00:30:52.238Z,0.6
2023-08-29T00:31:59.964Z,0.3
2023-08-29T00:33:09.669Z,0.4
2023-08-29T00:34:18.290Z,0.3
2023-08-29T00:35:26.952Z,0.6
2023-08-29T00:36:35.648Z,0.3
2023-08-29T00:37:44.369Z,1.1
2023-08-29T00:38:54.032Z,0.3
2023-08-29T00:40:02.698Z,0.6
2023-08-29T00:41:10.350Z,0.3
2023-08-29T00:42:20.088Z,0.3
2023-08-29T00:43:29.781Z,0.5
2023-08-29T00:44:39.451Z,0.4
2023-08-29T00:45:48.199Z,0.4
2023-08-29T00:46:56.840Z,0.3
2023-08-29T00:48:07.047Z,0.3
2023-08-29T00:49:16.577Z,0.4
2023-08-29T00:50:26.287Z,0.4
2023-08-29T00:51:35.962Z,0.5
2023-08-29T00:52:44.649Z,0.4
2023-08-29T00:53:54.348Z,0.4
2023-08-29T00:55:03.050Z,0.5
2023-08-29T00:56:11.745Z,0.3
2023-08-29T00:57:21.451Z,0.3
2023-08-29T00:58:31.114Z,0.3
2023-08-29T00:59:39.801Z,0.4
2023-08-29T01:00:48.485Z,0.3
2023-08-29T01:01:58.156Z,0.4
2023-08-29T01:03:07.882Z,0.8
2023-08-29T01:04:17.559Z,0.3
2023-08-29T01:05:26.220Z,0.4
2023-08-29T01:06:34.906Z,0.4
2023-08-29T01:07:43.549Z,0.5
2023-08-29T01:08:52.223Z,0.5
2023-08-29T01:10:00.978Z,0.4
2023-08-29T01:11:10.674Z,0.5
2023-08-29T01:12:19.345Z,0.4
2023-08-29T01:13:29.009Z,0.7
2023-08-29T01:14:37.744Z,0.7
2023-08-29T01:15:45.479Z,0.5
2023-08-29T01:16:55.072Z,0.4
2023-08-29T01:18:03.913Z,0.3
2023-08-29T01:19:12.521Z,0.6
2023-08-29T01:20:22.210Z,0.4
2023-08-29T01:21:30.897Z,0.7
2023-08-29T01:22:40.615Z,0.3
2023-08-29T01:23:50.263Z,0.3
2023-08-29T01:24:58.930Z,0.4
2023-08-29T01:26:10.083Z,0.2
2023-08-29T01:27:17.351Z,0.2
2023-08-29T01:28:26.047Z,0.2
2023-08-29T01:29:34.752Z,0.2
2023-08-29T01:30:42.445Z,0.3
2023-08-29T01:31:52.119Z,0.4
2023-08-29T01:33:00.883Z,0.5
2023-08-29T01:34:08.492Z,0.3
2023-08-29T01:35:22.518Z,0.5
2023-08-29T01:36:30.806Z,0.5
2023-08-29T01:37:39.468Z,0.2
2023-08-29T01:38:49.199Z,0.3
2023-08-29T01:39:56.846Z,0.6
2023-08-29T01:41:06.533Z,0.7
2023-08-29T01:42:15.228Z,0.4
2023-08-29T01:43:23.897Z,0.4
2023-08-29T01:44:33.610Z,0.4
2023-08-29T01:45:42.499Z,0.5
2023-08-29T01:46:50.947Z,0.5
2023-08-29T01:47:59.618Z,0.3
2023-08-29T01:49:07.312Z,0.4
2023-08-29T01:50:17.024Z,0.3
2023-08-29T01:51:25.714Z,0.5
2023-08-29T01:52:33.426Z,0.3
2023-08-29T01:53:43.061Z,0.4
2023-08-29T01:54:52.778Z,0.3
2023-08-29T01:56:01.410Z,0.5
2023-08-29T01:57:10.098Z,0.7
2023-08-29T01:58:18.768Z,0.4
2023-08-29T01:59:28.446Z,0.4
2023-08-29T02:00:38.166Z,0.6
2023-08-29T02:01:47.867Z,0.4
2023-08-29T02:02:56.579Z,0.7
2023-08-29T02:04:06.259Z,0.5
2023-08-29T02:05:14.954Z,0.3
2023-08-29T02:06:24.638Z,0.4
2023-08-29T02:07:33.348Z,0.4
2023-08-29T02:08:43.037Z,0.7
2023-08-29T02:09:51.751Z,0.5
2023-08-29T02:11:01.467Z,0.4
2023-08-29T02:12:11.130Z,0.8
2023-08-29T02:13:20.858Z,0.5
2023-08-29T02:14:29.542Z,0.4
2023-08-29T02:15:38.238Z,0.6
2023-08-29T02:16:46.980Z,0.4
2023-08-29T02:17:56.739Z,0.3
2023-08-29T02:19:05.396Z,0.6
2023-08-29T02:20:13.062Z,0.4
2023-08-29T02:21:22.778Z,0.4
2023-08-29T02:22:31.449Z,0.2
2023-08-29T02:23:40.187Z,0.4
2023-08-29T02:24:49.858Z,0.5
2023-08-29T02:25:58.558Z,0.5
2023-08-29T02:27:08.337Z,0.4
2023-08-29T02:28:17.971Z,0.8
2023-08-29T02:29:25.667Z,0.7
2023-08-29T02:30:35.355Z,0.8
2023-08-29T02:31:44.052Z,0.9
2023-08-29T02:32:53.812Z,0.7
2023-08-29T02:34:03.433Z,0.6
2023-08-29T02:35:11.131Z,0.8
2023-08-29T02:36:20.852Z,0.8
2023-08-29T02:37:29.536Z,0.7
2023-08-29T02:38:37.238Z,0.6
2023-08-29T02:39:46.904Z,0.9
2023-08-29T02:40:55.557Z,0.3
2023-08-29T02:42:03.267Z,0.5
2023-08-29T02:43:11.962Z,0.6
2023-08-29T02:44:20.693Z,0.7
2023-08-29T02:45:30.379Z,1.1
2023-08-29T02:46:39.092Z,0.8
2023-08-29T02:47:46.779Z,0.7
2023-08-29T02:48:56.501Z,0.7
2023-08-29T02:50:06.186Z,0.7
2023-08-29T02:51:15.886Z,0.5
2023-08-29T02:52:24.765Z,0.6
2023-08-29T02:53:33.462Z,0.6
2023-08-29T02:54:43.150Z,0.6
2023-08-29T02:55:51.864Z,0.6
2023-08-29T02:56:59.533Z,0.7
2023-08-29T02:58:09.336Z,0.5
2023-08-29T02:59:17.948Z,0.6
2023-08-29T03:00:26.669Z,0.7
2023-08-29T03:01:36.375Z,0.6
2023-08-29T03:02:45.079Z,1
2023-08-29T03:03:53.827Z,0.5
2023-08-29T03:05:03.513Z,0.6
2023-08-29T03:06:12.187Z,0.6
2023-08-29T03:07:20.917Z,0.5
2023-08-29T03:08:29.617Z,0.5
2023-08-29T03:09:39.301Z,0.5
2023-08-29T03:10:49.008Z,0.5
2023-08-29T03:11:57.692Z,0.4
2023-08-29T03:13:07.385Z,0.5
2023-08-29T03:14:17.105Z,0.4
2023-08-29T03:15:26.836Z,0.4
2023-08-29T03:16:36.504Z,0.4
2023-08-29T03:17:46.242Z,0.4
2023-08-29T03:18:53.886Z,0.4
2023-08-29T03:20:03.558Z,0.2
2023-08-29T03:21:12.268Z,0.3
2023-08-29T03:22:19.971Z,1
2023-08-29T03:23:29.661Z,0.4
2023-08-29T03:24:38.370Z,0.4
2023-08-29T03:25:47.085Z,0.5
2023-08-29T03:26:56.804Z,0.3
2023-08-29T03:28:06.750Z,0.6
2023-08-29T03:29:16.282Z,0.5
2023-08-29T03:30:24.982Z,0.3
2023-08-29T03:31:34.676Z,0.4
2023-08-29T03:32:44.452Z,0.3
2023-08-29T03:33:54.047Z,0.5
2023-08-29T03:35:03.731Z,0.2
2023-08-29T03:36:12.453Z,0.3
2023-08-29T03:37:21.136Z,0.3
2023-08-29T03:38:31.888Z,0.2
2023-08-29T03:39:40.547Z,0.3
2023-08-29T03:40:48.316Z,0.3
2023-08-29T03:41:58.001Z,0.4
2023-08-29T03:43:07.706Z,0.3
2023-08-29T03:44:17.385Z,0.4
2023-08-29T03:45:27.048Z,0.3
2023-08-29T03:46:35.760Z,0.4
2023-08-29T03:47:45.480Z,0.4
2023-08-29T03:48:55.112Z,0.6
2023-08-29T03:50:03.797Z,0.5
2023-08-29T03:51:13.465Z,0.5
2023-08-29T03:52:23.176Z,0.4
2023-08-29T03:53:32.881Z,0.5
2023-08-29T03:54:41.551Z,0.5
2023-08-29T03:55:49.264Z,0.5
2023-08-29T03:56:57.922Z,0.5
2023-08-29T03:58:07.885Z,0.7
2023-08-29T03:59:15.341Z,0.6
2023-08-29T04:00:25.020Z,0.5
2023-08-29T04:01:33.676Z,0.7
2023-08-29T04:02:42.430Z,0.4
2023-08-29T04:03:54.167Z,0.7
2023-08-29T04:05:00.833Z,0.8
2023-08-29T04:06:10.483Z,0.4
2023-08-29T04:07:20.169Z,0.3
2023-08-29T04:08:28.865Z,1
2023-08-29T04:09:38.526Z,0.7
2023-08-29T04:10:48.286Z,0.6
2023-08-29T04:11:56.993Z,0.8
2023-08-29T04:13:06.809Z,0.7
2023-08-29T04:14:15.492Z,0.6
2023-08-29T04:15:25.238Z,0.6
2023-08-29T04:16:33.958Z,0.7
2023-08-29T04:17:41.766Z,1
2023-08-29T04:18:52.789Z,0.6
2023-08-29T04:20:00.013Z,0.8
2023-08-29T04:21:09.716Z,0.7
2023-08-29T04:22:18.429Z,1.1
2023-08-29T04:23:27.127Z,0.7
2023-08-29T04:24:36.815Z,0.7
2023-08-29T04:25:45.544Z,1.1
2023-08-29T04:26:53.185Z,1.1
2023-08-29T04:28:02.896Z,0.9
2023-08-29T04:29:11.820Z,0.7
2023-08-29T04:30:21.529Z,0.9
2023-08-29T04:31:29.202Z,0.6
2023-08-29T04:32:37.952Z,0.7
2023-08-29T04:33:47.556Z,0.7
2023-08-29T04:34:57.262Z,0.7
2023-08-29T04:36:06.969Z,0.9
2023-08-29T04:37:16.700Z,0.7
2023-08-29T04:38:26.394Z,0.6
2023-08-29T04:39:35.145Z,0.8
2023-08-29T04:40:44.873Z,0.6
2023-08-29T04:41:52.561Z,0.7
2023-08-29T04:43:02.412Z,0.6
2023-08-29T04:44:12.144Z,0.6
2023-08-29T04:45:20.835Z,0.6
2023-08-29T04:46:30.549Z,1.1
2023-08-29T04:47:39.275Z,0.7
2023-08-29T04:48:47.941Z,1.3
2023-08-29T04:49:56.625Z,0.6
2023-08-29T04:51:05.284Z,0.5
2023-08-29T04:52:15.043Z,0.4
2023-08-29T04:53:24.678Z,1
2023-08-29T04:54:33.353Z,0.6
2023-08-29T04:55:42.071Z,0.6
2023-08-29T04:56:51.713Z,0.6
2023-08-29T04:57:59.425Z,0.6
2023-08-29T04:59:08.096Z,1
2023-08-29T05:00:17.788Z,0.4
2023-08-29T05:01:25.482Z,0.6
2023-08-29T05:02:35.388Z,0.5
2023-08-29T05:03:45.111Z,0.6
2023-08-29T05:04:53.762Z,0.7
2023-08-29T05:06:02.451Z,0.5
2023-08-29T05:07:12.103Z,0.5
2023-08-29T05:08:21.833Z,1.1
2023-08-29T05:09:31.532Z,0.7
2023-08-29T05:10:39.205Z,0.8
2023-08-29T05:11:48.921Z,1.1
2023-08-29T05:12:58.631Z,1.2
2023-08-29T05:14:08.299Z,0.9
2023-08-29T05:15:17.156Z,0.7
2023-08-29T05:16:26.812Z,0.8
2023-08-29T05:17:36.512Z,0.3
2023-08-29T05:18:46.213Z,0.7
2023-08-29T05:19:53.946Z,0.4
2023-08-29T05:21:03.632Z,0.3
2023-08-29T05:22:12.282Z,0.3
2023-08-29T05:23:20.994Z,0.2
2023-08-29T05:24:29.817Z,0.4
2023-08-29T05:25:37.460Z,0.4
2023-08-29T05:26:47.197Z,0.4
2023-08-29T05:27:55.863Z,0.6
2023-08-29T05:29:05.546Z,0.3
2023-08-29T05:30:15.289Z,0.3
2023-08-29T05:31:23.997Z,0.4
2023-08-29T05:32:31.666Z,0.2
2023-08-29T05:33:41.303Z,0.3
2023-08-29T05:34:48.969Z,0.7
2023-08-29T05:35:58.671Z,0.5
2023-08-29T05:37:07.324Z,0.3
2023-08-29T05:38:15.005Z,0.4
2023-08-29T05:39:24.785Z,0.4
2023-08-29T05:40:34.564Z,0.7
2023-08-29T05:41:41.132Z,0.4
2023-08-29T05:42:50.895Z,0.4
2023-08-29T05:43:58.662Z,0.5
2023-08-29T05:45:08.323Z,0.5
2023-08-29T05:46:17.015Z,0.5
2023-08-29T05:47:26.710Z,0.6
2023-08-29T05:48:36.415Z,1.1
2023-08-29T05:49:45.155Z,1.2
2023-08-29T05:50:53.814Z,1.6
2023-08-29T05:52:03.521Z,0.8
2023-08-29T05:53:12.275Z,0.8
2023-08-29T05:54:21.941Z,1.1
2023-08-29T05:55:30.640Z,1.2
2023-08-29T05:56:40.334Z,0.9
2023-08-29T05:57:49.981Z,1.3
2023-08-29T05:58:59.675Z,0.9
2023-08-29T06:00:08.373Z,0.9
2023-08-29T06:01:18.062Z,0.9
2023-08-29T06:02:26.830Z,0.8
2023-08-29T06:03:36.514Z,1.2
2023-08-29T06:04:45.151Z,0.9
2023-08-29T06:05:52.833Z,1.1
2023-08-29T06:07:02.602Z,1.3
2023-08-29T06:08:18.875Z,1.2
2023-08-29T06:09:21.950Z,1
2023-08-29T06:10:30.603Z,0.6
2023-08-29T06:11:39.336Z,1.3
2023-08-29T06:12:49.070Z,0.9
2023-08-29T06:13:58.724Z,1
2023-08-29T06:15:08.831Z,0.8
2023-08-29T06:16:17.508Z,1
2023-08-29T06:17:26.186Z,1
2023-08-29T06:18:34.905Z,1.4
2023-08-29T06:19:43.566Z,0.8
2023-08-29T06:20:53.302Z,1
2023-08-29T06:22:02.994Z,1.4
2023-08-29T06:23:11.685Z,1.1
2023-08-29T06:24:21.367Z,1
2023-08-29T06:25:31.045Z,1.3
2023-08-29T06:26:39.782Z,1
2023-08-29T06:27:48.472Z,0.8
2023-08-29T06:28:57.220Z,1.1
2023-08-29T06:30:05.882Z,1
2023-08-29T06:31:15.593Z,0.9
2023-08-29T06:32:24.327Z,1
2023-08-29T06:33:32.011Z,0.9
2023-08-29T06:34:41.725Z,0.7
2023-08-29T06:35:50.410Z,0.9
2023-08-29T06:36:59.104Z,0.7
2023-08-29T06:38:08.197Z,1.1
2023-08-29T06:39:15.605Z,0.9
2023-08-29T06:40:25.318Z,0.8
2023-08-29T06:41:34.035Z,0.6
2023-08-29T06:42:43.717Z,0.8
2023-08-29T06:43:53.401Z,0.6
2023-08-29T06:45:02.090Z,0.7
2023-08-29T06:46:10.770Z,0.6
2023-08-29T06:47:20.487Z,0.8
2023-08-29T06:48:30.194Z,0.8
2023-08-29T06:49:38.859Z,0.7
2023-08-29T06:50:48.534Z,0.8
2023-08-29T06:51:56.221Z,0.8
2023-08-29T06:53:05.919Z,1
2023-08-29T06:54:14.637Z,0.9
2023-08-29T06:55:22.303Z,1
2023-08-29T06:56:31.987Z,0.8
2023-08-29T06:57:41.676Z,0.9
2023-08-29T06:58:49.337Z,1.2
2023-08-29T06:59:59.035Z,1
2023-08-29T07:01:08.817Z,0.9
2023-08-29T07:02:17.376Z,0.9
2023-08-29T07:03:26.146Z,0.9
2023-08-29T07:04:33.772Z,1.1
2023-08-29T07:05:43.503Z,0.8
2023-08-29T07:06:52.154Z,1
2023-08-29T07:07:59.858Z,0.8
2023-08-29T07:09:09.539Z,0.9
2023-08-29T07:10:19.277Z,0.5
2023-08-29T07:11:28.933Z,0.9
2023-08-29T07:12:37.653Z,0.4
2023-08-29T07:13:45.347Z,0.4
2023-08-29T07:14:55.006Z,0.3
2023-08-29T07:16:04.704Z,0.3
2023-08-29T07:17:14.544Z,0.4
2023-08-29T07:18:24.333Z,0.2
2023-08-29T07:19:34.015Z,0.4
2023-08-29T07:20:43.712Z,0.4
2023-08-29T07:21:52.393Z,0.4
2023-08-29T07:23:03.065Z,0.4
2023-08-29T07:24:13.147Z,0.6
2023-08-29T07:25:22.530Z,0.3
2023-08-29T07:26:30.219Z,0.2
2023-08-29T07:27:39.912Z,0.5
2023-08-29T07:28:48.641Z,0.4
2023-08-29T07:29:58.330Z,0.3
2023-08-29T07:31:07.055Z,0.6
2023-08-29T07:32:14.720Z,0.4
2023-08-29T07:33:24.425Z,0.3
2023-08-29T07:34:34.077Z,0.3
2023-08-29T07:35:41.863Z,0.3
2023-08-29T07:36:51.593Z,0.4
2023-08-29T07:38:00.348Z,0.3
2023-08-29T07:39:08.121Z,0.8
2023-08-29T07:40:16.790Z,0.4
2023-08-29T07:41:25.550Z,0.6
2023-08-29T07:42:35.283Z,0.4
2023-08-29T07:43:43.970Z,0.3
2023-08-29T07:44:53.698Z,0.3
2023-08-29T07:46:03.440Z,0.5
2023-08-29T07:47:15.363Z,0.3
2023-08-29T07:48:22.778Z,0.3
2023-08-29T07:49:31.547Z,0.3
2023-08-29T07:50:40.228Z,0.2
2023-08-29T07:51:49.904Z,0.5
2023-08-29T07:52:58.602Z,0.8
2023-08-29T07:54:07.326Z,0.3
2023-08-29T07:55:17.059Z,0.4
2023-08-29T07:56:26.761Z,0.3
2023-08-29T07:57:36.428Z,0.3
2023-08-29T07:58:45.126Z,0.2
2023-08-29T07:59:52.850Z,0.8
2023-08-29T08:01:02.531Z,0.2
2023-08-29T08:02:11.236Z,0.2
2023-08-29T08:03:19.931Z,0.2
2023-08-29T08:04:29.609Z,0.2
2023-08-29T08:05:38.316Z,0.3
2023-08-29T08:06:48.027Z,0.4
2023-08-29T08:07:56.697Z,0.2
2023-08-29T08:09:04.395Z,0.3
2023-08-29T08:10:14.155Z,0.3
2023-08-29T08:11:24.036Z,0.3
2023-08-29T08:12:32.739Z,0.3
2023-08-29T08:13:42.450Z,0.2
2023-08-29T08:14:51.099Z,0.1
2023-08-29T08:16:01.418Z,0.3
2023-08-29T08:17:11.468Z,0.3
2023-08-29T08:18:19.127Z,0.3
2023-08-29T08:19:28.829Z,0.2
2023-08-29T08:20:37.498Z,0.4
2023-08-29T08:21:48.843Z,0.1
2023-08-29T08:22:57.868Z,0.2
2023-08-29T08:24:07.536Z,0.3
2023-08-29T08:25:16.205Z,0.2
2023-08-29T08:26:24.894Z,0.3
2023-08-29T08:27:32.591Z,0.4
2023-08-29T08:28:42.248Z,0.6
2023-08-29T08:29:49.943Z,0.4
2023-08-29T08:30:58.593Z,0.3
2023-08-29T08:32:08.301Z,0.2
2023-08-29T08:33:18.070Z,0.1
2023-08-29T08:34:26.702Z,0.2
2023-08-29T08:35:38.793Z,0.3
2023-08-29T08:36:47.014Z,0.2
2023-08-29T08:37:56.762Z,0.2
2023-08-29T08:39:06.565Z,0.2
2023-08-29T08:40:15.229Z,0.3
2023-08-29T08:41:24.925Z,0.3
2023-08-29T08:42:32.565Z,0.2
2023-08-29T08:43:42.310Z,0.2
2023-08-29T08:44:51.038Z,0.3
2023-08-29T08:45:58.730Z,0.3
2023-08-29T08:47:08.364Z,0.7
2023-08-29T08:48:17.129Z,0.3
2023-08-29T08:49:25.708Z,0.5
2023-08-29T08:50:35.504Z,0.5
2023-08-29T08:51:45.185Z,0.4
2023-08-29T08:52:53.885Z,0.4
2023-08-29T08:54:03.597Z,0.4
2023-08-29T08:55:13.230Z,0.1
2023-08-29T08:56:23.015Z,0.2
2023-08-29T08:57:32.689Z,0.2
2023-08-29T08:58:41.368Z,0.3
2023-08-29T08:59:50.069Z,0.2
2023-08-29T09:00:58.754Z,1
2023-08-29T09:02:06.469Z,0.3
2023-08-29T09:03:16.208Z,0.7
2023-08-29T09:04:24.900Z,0.2
2023-08-29T09:05:33.522Z,0.3
2023-08-29T09:06:43.172Z,0.2
2023-08-29T09:07:52.833Z,0.2
2023-08-29T09:09:01.513Z,0.2
2023-08-29T09:10:10.248Z,0.6
2023-08-29T09:11:18.867Z,0.1
2023-08-29T09:12:28.535Z,0.3
2023-08-29T09:13:38.295Z,0.2
2023-08-29T09:14:45.948Z,0.3
2023-08-29T09:15:55.654Z,0.3
2023-08-29T09:17:04.312Z,0.1
2023-08-29T09:18:13.972Z,0.1
2023-08-29T09:19:23.716Z,0.1
2023-08-29T09:20:31.363Z,0.2
2023-08-29T09:21:41.027Z,0.1
2023-08-29T09:22:49.690Z,0.3
2023-08-29T09:23:58.395Z,0.1
2023-08-29T09:25:08.105Z,0.1
2023-08-29T09:26:17.818Z,0.4
2023-08-29T09:27:26.448Z,0.2
2023-08-29T09:28:35.104Z,1.5
2023-08-29T09:29:42.765Z,0.2
2023-08-29T09:30:52.466Z,0.2
2023-08-29T09:32:01.139Z,0.5
2023-08-29T09:33:10.895Z,0.3
2023-08-29T09:34:20.494Z,0.6
2023-08-29T09:35:29.143Z,0.2
2023-08-29T09:36:37.824Z,0.2
2023-08-29T09:37:47.495Z,0.2
2023-08-29T09:38:55.212Z,0.5
2023-08-29T09:41:14.606Z,0.7
2023-08-29T09:42:24.375Z,0.2
2023-08-29T09:43:32.974Z,0.1
2023-08-29T09:44:41.631Z,0.2
2023-08-29T09:45:50.405Z,0.1
2023-08-29T09:46:59.056Z,0.2
2023-08-29T09:48:08.203Z,0.1
2023-08-29T09:49:17.442Z,0.2
2023-08-29T09:50:27.094Z,0.1
2023-08-29T09:51:34.796Z,0.2
2023-08-29T09:52:44.475Z,0.2
2023-08-29T09:53:53.296Z,0.3
2023-08-29T09:55:01.996Z,0.4
2023-08-29T09:56:09.658Z,0.3
2023-08-29T09:57:17.343Z,0.3
2023-08-29T09:58:27.128Z,0.2
2023-08-29T09:59:36.732Z,0.2
2023-08-29T10:00:45.443Z,0.1
2023-08-29T10:01:55.126Z,0.2
2023-08-29T10:03:04.900Z,0
2023-08-29T10:04:13.580Z,0.1
2023-08-29T10:05:22.254Z,0.4
2023-08-29T10:06:29.937Z,0.7
2023-08-29T10:07:39.698Z,0.1
2023-08-29T10:08:48.383Z,0.2
2023-08-29T10:09:58.034Z,0.3
2023-08-29T10:11:07.742Z,0.3
2023-08-29T10:12:17.428Z,0.2
2023-08-29T10:13:26.123Z,0.1
2023-08-29T10:14:34.853Z,0.1
2023-08-29T10:15:43.493Z,0.1
2023-08-29T10:16:53.348Z,0.1
2023-08-29T10:18:01.923Z,0.1
2023-08-29T10:19:09.592Z,0.1
2023-08-29T10:20:19.623Z,0.1
2023-08-29T10:21:28.285Z,0.1
2023-08-29T10:22:37.046Z,0.3
2023-08-29T10:23:46.749Z,0.2
2023-08-29T10:24:54.410Z,0.3
2023-08-29T10:26:04.085Z,0.1
2023-08-29T10:27:12.779Z,0.3
2023-08-29T10:28:21.514Z,0.3
2023-08-29T10:29:31.206Z,0.3
2023-08-29T10:30:40.960Z,0.2
2023-08-29T10:31:50.608Z,0.4
2023-08-29T10:33:00.283Z,0.3
2023-08-29T10:34:08.006Z,0.5
2023-08-29T10:35:17.676Z,0.2
2023-08-29T10:36:27.348Z,0.5
2023-08-29T10:37:36.059Z,0.4
2023-08-29T10:38:45.793Z,0.2
2023-08-29T10:39:54.510Z,0.2
2023-08-29T10:41:04.210Z,0.2
2023-08-29T10:42:13.957Z,0.1
2023-08-29T10:43:23.849Z,0.1
2023-08-29T10:44:33.564Z,0.1
2023-08-29T10:45:42.266Z,0.2
2023-08-29T10:46:52.019Z,0.2
2023-08-29T10:48:01.620Z,0.2
2023-08-29T10:49:10.347Z,0.2
2023-08-29T10:50:19.028Z,0.2
2023-08-29T10:51:28.709Z,0.1
2023-08-29T10:52:37.401Z,0.3
2023-08-29T10:53:46.547Z,0.1
2023-08-29T10:54:56.241Z,0.2
2023-08-29T10:56:04.961Z,0.3
2023-08-29T10:57:13.558Z,0.2
2023-08-29T10:58:22.228Z,0.3
2023-08-29T10:59:31.915Z,0.7
2023-08-29T11:00:41.615Z,0.4
2023-08-29T11:01:50.284Z,0.3
2023-08-29T11:02:59.991Z,0.3
2023-08-29T11:04:09.650Z,0.2
2023-08-29T11:05:19.349Z,0.3
2023-08-29T11:06:28.048Z,0.1
2023-08-29T11:07:37.705Z,0
2023-08-29T11:08:46.383Z,0.1
2023-08-29T11:09:56.052Z,0.1
2023-08-29T11:11:04.925Z,0
2023-08-29T11:12:13.613Z,0.1
2023-08-29T11:13:23.281Z,0.1
2023-08-29T11:14:31.938Z,0
2023-08-29T11:15:40.679Z,0.2
2023-08-29T11:16:50.400Z,0.1
2023-08-29T11:17:59.094Z,0.2
2023-08-29T11:19:08.867Z,0.2
2023-08-29T11:20:18.506Z,0.2
2023-08-29T11:21:27.135Z,0.2
2023-08-29T11:22:36.811Z,0.1
2023-08-29T11:23:45.485Z,0.5
2023-08-29T11:24:55.185Z,0.1
2023-08-29T11:26:03.876Z,0.1
2023-08-29T11:27:12.524Z,0.2
2023-08-29T11:28:22.237Z,0.2
2023-08-29T11:29:31.908Z,0.2
2023-08-29T11:30:44.714Z,0.5
2023-08-29T11:31:52.243Z,0.2
2023-08-29T11:33:01.984Z,0.2
2023-08-29T11:34:11.907Z,0.3
2023-08-29T11:35:21.425Z,0.2
2023-08-29T11:36:29.101Z,0.1
2023-08-29T11:37:38.826Z,0.2
2023-08-29T11:38:49.501Z,0.3
2023-08-29T11:39:58.220Z,0.3
2023-08-29T11:41:15.603Z,0.2
2023-08-29T11:42:43.227Z,0.3
2023-08-29T11:43:43.845Z,0.5
2023-08-29T11:44:48.668Z,0.4
2023-08-29T11:45:51.649Z,0.5
2023-08-29T11:47:01.310Z,0.4
2023-08-29T11:48:10.370Z,0.5
2023-08-29T11:49:19.963Z,0.9
2023-08-29T11:50:29.416Z,1.2
2023-08-29T11:51:38.113Z,0.8
2023-08-29T11:52:47.945Z,0.7
2023-08-29T11:53:57.554Z,0.4
2023-08-29T11:55:06.215Z,0
2023-08-29T11:56:15.878Z,0.1
2023-08-29T11:57:24.612Z,0.4
2023-08-29T11:58:32.370Z,0.1
2023-08-29T11:59:42.008Z,0.1
2023-08-29T12:00:51.738Z,0.1
2023-08-29T12:02:00.421Z,0.3
2023-08-29T12:03:10.102Z,0.2
2023-08-29T12:04:19.834Z,0
2023-08-29T12:05:29.524Z,0.1
2023-08-29T12:06:39.188Z,0.1
2023-08-29T12:07:46.925Z,0.1
2023-08-29T12:08:55.592Z,0.2
2023-08-29T12:10:05.348Z,0.1
2023-08-29T12:11:13.975Z,0.1
2023-08-29T12:12:23.637Z,0.1
2023-08-29T12:13:34.403Z,0.2
2023-08-29T12:14:44.080Z,0.2
2023-08-29T12:15:52.766Z,0.6
2023-08-29T12:17:00.412Z,0.2
2023-08-29T12:18:10.393Z,0.2
2023-08-29T12:19:18.784Z,0.2
2023-08-29T12:20:27.457Z,0.3
2023-08-29T12:21:36.173Z,0.3
2023-08-29T12:22:45.805Z,0.4
2023-08-29T12:23:55.516Z,0.3
2023-08-29T12:25:04.153Z,0.3
2023-08-29T12:26:11.805Z,0.2
2023-08-29T12:27:21.503Z,0.2
2023-08-29T12:28:30.159Z,0.5
2023-08-29T12:29:38.900Z,0.1
2023-08-29T12:30:47.597Z,0.2
2023-08-29T12:31:57.252Z,0.4
2023-08-29T12:33:05.969Z,0.1
2023-08-29T12:34:15.714Z,0.1
2023-08-29T12:35:22.390Z,0.2
2023-08-29T12:36:32.067Z,0.1
2023-08-29T12:37:41.757Z,0.2
2023-08-29T12:38:50.415Z,0.1
2023-08-29T12:39:59.103Z,0.3
2023-08-29T12:41:08.765Z,0.1
2023-08-29T12:42:18.424Z,0.2
2023-08-29T12:43:27.077Z,0.4
2023-08-29T12:44:35.771Z,0.2
2023-08-29T12:45:57.150Z,0.3
2023-08-29T12:46:55.113Z,0.2
2023-08-29T12:48:04.978Z,0.3
2023-08-29T12:49:14.492Z,0.1
2023-08-29T12:50:24.242Z,0.2
2023-08-29T12:51:32.960Z,0.1
2023-08-29T12:52:41.618Z,0.1
2023-08-29T12:53:50.380Z,0.2
2023-08-29T12:54:59.039Z,0.1
2023-08-29T12:56:09.315Z,0.1
2023-08-29T12:57:16.477Z,0.5
2023-08-29T12:58:26.187Z,0.1
2023-08-29T12:59:35.879Z,0.3
2023-08-29T13:00:42.564Z,0.4
2023-08-29T13:01:52.265Z,0.6
2023-08-29T13:03:00.903Z,0.1
2023-08-29T13:04:10.606Z,0.1
2023-08-29T13:05:19.294Z,0.1
2023-08-29T13:06:28.934Z,0
2023-08-29T13:07:38.586Z,0.4
2023-08-29T13:08:47.250Z,0.1
2023-08-29T13:09:56.952Z,0.1
2023-08-29T13:11:06.609Z,0.1
2023-08-29T13:12:15.266Z,0.2
2023-08-29T13:13:23.923Z,0.1
2023-08-29T13:14:37.637Z,0.2
2023-08-29T13:15:50.831Z,0.1
2023-08-29T13:16:53.991Z,0.2
2023-08-29T13:18:02.731Z,0.1
2023-08-29T13:19:10.308Z,0.1
2023-08-29T13:20:20.015Z,0.1
2023-08-29T13:21:29.679Z,0.1
2023-08-29T13:22:38.316Z,0.1
2023-08-29T13:23:47.010Z,0.3
2023-08-29T13:24:54.787Z,0.2
2023-08-29T13:26:04.473Z,0
2023-08-29T13:27:14.130Z,0.1
2023-08-29T13:28:21.802Z,0.1
2023-08-29T13:29:31.502Z,0.1
2023-08-29T13:30:40.164Z,0
2023-08-29T13:31:48.957Z,0.1
2023-08-29T13:32:57.634Z,0.1
2023-08-29T13:34:05.287Z,0.1
2023-08-29T13:35:15.315Z,0.4
2023-08-29T13:36:24.689Z,0.1
2023-08-29T13:37:33.369Z,0.1
2023-08-29T13:38:43.080Z,0.2
2023-08-29T13:39:52.775Z,0.1
2023-08-29T13:41:01.442Z,0.1
2023-08-29T13:42:10.141Z,0.2
2023-08-29T13:43:17.792Z,0.1
2023-08-29T13:44:28.537Z,0.1
2023-08-29T13:45:37.183Z,0.1
2023-08-29T13:46:47.090Z,0.2
2023-08-29T13:47:56.594Z,0.2
2023-08-29T13:49:05.218Z,0.1
2023-08-29T13:50:14.885Z,0
2023-08-29T13:51:24.611Z,0.1
2023-08-29T13:52:32.281Z,0.3
2023-08-29T13:53:42.003Z,0
2023-08-29T13:54:49.696Z,0
2023-08-29T13:55:57.354Z,0
2023-08-29T13:57:07.032Z,0.1
2023-08-29T13:58:15.710Z,0.3
2023-08-29T13:59:25.370Z,0.1
2023-08-29T14:00:34.096Z,0.1
2023-08-29T14:01:41.861Z,0.2
2023-08-29T14:02:51.723Z,0.1
2023-08-29T14:04:01.479Z,0.8
2023-08-29T14:05:10.143Z,0.4
2023-08-29T14:06:19.782Z,0.2
2023-08-29T14:07:28.455Z,0.2
2023-08-29T14:08:37.118Z,0.3
2023-08-29T14:09:45.822Z,0.3
2023-08-29T14:10:53.466Z,0.2
2023-08-29T14:12:03.162Z,0.2
2023-08-29T14:13:11.825Z,0.2
2023-08-29T14:14:21.531Z,0.3
2023-08-29T14:15:31.215Z,0.1
2023-08-29T14:16:41.440Z,0.1
2023-08-29T14:17:49.609Z,0.2
2023-08-29T14:18:59.204Z,0.3
2023-08-29T14:20:07.897Z,0.2
2023-08-29T14:21:20.499Z,0.3
2023-08-29T14:22:30.207Z,0.2
2023-08-29T14:23:37.872Z,0.2
2023-08-29T14:24:47.535Z,0.3
2023-08-29T14:25:56.214Z,0.3
2023-08-29T14:27:04.875Z,0.2
2023-08-29T14:28:14.575Z,0.4
2023-08-29T14:29:23.318Z,0.2
2023-08-29T14:30:33.033Z,0.2
2023-08-29T14:31:41.763Z,0.2
2023-08-29T14:32:49.327Z,0.3
2023-08-29T14:33:58.998Z,0.2
2023-08-29T14:35:08.634Z,0.3
2023-08-29T14:36:17.333Z,0.2
2023-08-29T14:37:26.004Z,0.3
2023-08-29T14:38:35.684Z,0.2
2023-08-29T14:39:45.328Z,1.1
2023-08-29T14:40:53.982Z,0.6
2023-08-29T14:42:02.662Z,0.5
2023-08-29T14:43:12.333Z,0.2
2023-08-29T14:44:22.041Z,0.6
2023-08-29T14:45:31.754Z,0.3
2023-08-29T14:46:41.434Z,0.3
2023-08-29T14:47:51.193Z,0.3
2023-08-29T14:48:58.858Z,0.4
2023-08-29T14:50:08.537Z,1.1
2023-08-29T14:51:17.200Z,0.2
2023-08-29T14:52:25.845Z,0.2
2023-08-29T14:53:34.521Z,0.2
2023-08-29T14:54:43.267Z,0.3
2023-08-29T14:55:52.914Z,0.3
2023-08-29T14:57:00.591Z,0.4
2023-08-29T14:58:10.441Z,0.3
2023-08-29T14:59:20.102Z,0.5
2023-08-29T15:00:28.771Z,0.5
2023-08-29T15:01:38.481Z,0.4
2023-08-29T15:02:48.203Z,0.4
2023-08-29T15:03:56.949Z,0.3
2023-08-29T15:05:06.524Z,0.3
2023-08-29T15:06:15.211Z,0.3
2023-08-29T15:07:22.916Z,0.3
2023-08-29T15:08:32.574Z,0.4
2023-08-29T15:09:41.212Z,0.3
2023-08-29T15:10:49.907Z,0.4
2023-08-29T15:11:58.559Z,0.4
2023-08-29T15:13:07.252Z,0.4
2023-08-29T15:14:16.912Z,0.5
2023-08-29T15:15:25.603Z,0.4
2023-08-29T15:16:34.349Z,0.2
2023-08-29T15:17:44.099Z,0.5
2023-08-29T15:18:52.723Z,0.4
2023-08-29T15:20:01.409Z,0.2
2023-08-29T15:21:10.102Z,0.2
2023-08-29T15:22:17.754Z,0.4
2023-08-29T15:23:27.415Z,0.7
2023-08-29T15:24:36.143Z,2.3
2023-08-29T15:25:44.810Z,0.2
2023-08-29T15:26:54.502Z,0.4
2023-08-29T15:28:03.153Z,0.4
2023-08-29T15:29:11.835Z,0.3
2023-08-29T15:30:20.499Z,0.3
2023-08-29T15:31:30.196Z,0.5
2023-08-29T15:32:39.926Z,0.3
2023-08-29T15:33:48.580Z,0.3
2023-08-29T15:34:57.207Z,0.2
2023-08-29T15:36:06.875Z,0.8
2023-08-29T15:37:16.626Z,0.3
2023-08-29T15:38:25.249Z,0.3
2023-08-29T15:39:33.980Z,0.4
2023-08-29T15:40:42.657Z,0.2
2023-08-29T15:41:52.370Z,0.2
2023-08-29T15:43:01.017Z,0.1
2023-08-29T15:44:09.693Z,0.1
2023-08-29T15:45:19.347Z,0.2
2023-08-29T15:46:29.128Z,0.4
2023-08-29T15:47:38.795Z,0.2
2023-08-29T15:48:47.416Z,0.2
2023-08-29T15:49:57.134Z,0.3
2023-08-29T15:51:06.760Z,0.2
2023-08-29T15:52:15.874Z,0.4
2023-08-29T15:53:24.612Z,0.4
2023-08-29T15:54:34.238Z,0.4
2023-08-29T15:55:42.899Z,0.3